createdAt,value
2018-12-04T00:01:56.375Z,10.91
2018-12-04T00:04:24.821Z,10.95
2018-12-04T00:06:53.526Z,10.91
2018-12-04T00:09:22.274Z,10.89
2018-12-04T00:11:50.805Z,10.87
2018-12-04T00:14:19.247Z,10.86
2018-12-04T00:16:48.004Z,10.79
2018-12-04T00:19:16.675Z,10.78
2018-12-04T00:21:45.515Z,10.72
2018-12-04T00:24:13.969Z,10.69
2018-12-04T00:26:42.423Z,10.68
2018-12-04T00:29:11.117Z,10.55
2018-12-04T00:31:40.568Z,10.53
2018-12-04T00:34:09.022Z,10.51
2018-12-04T00:36:37.499Z,10.46
2018-12-04T00:39:07.678Z,10.55
2018-12-04T00:41:36.167Z,10.59
2018-12-04T00:44:05.111Z,10.62
2018-12-04T00:46:34.738Z,10.52
2018-12-04T00:49:03.205Z,10.56
2018-12-04T00:51:31.710Z,10.56
2018-12-04T00:54:00.183Z,10.59
2018-12-04T00:56:28.684Z,10.54
2018-12-04T00:58:57.420Z,10.56
2018-12-04T01:01:26.132Z,10.57
2018-12-04T01:03:54.601Z,10.54
2018-12-04T01:06:23.127Z,10.54
2018-12-04T01:08:51.598Z,10.56
2018-12-04T01:11:20.091Z,10.60
2018-12-04T01:13:48.903Z,10.64
2018-12-04T01:16:17.712Z,10.58
2018-12-04T01:18:46.204Z,10.56
2018-12-04T01:21:14.749Z,10.53
2018-12-04T01:23:43.676Z,10.54
2018-12-04T01:26:13.076Z,10.53
2018-12-04T01:28:41.821Z,10.48
2018-12-04T01:31:10.261Z,10.44
2018-12-04T01:33:38.959Z,10.47
2018-12-04T01:36:07.389Z,10.37
2018-12-04T01:38:40.477Z,10.34
2018-12-04T01:41:09.175Z,10.34
2018-12-04T01:43:37.927Z,10.27
2018-12-04T01:46:06.359Z,10.32
2018-12-04T01:48:35.041Z,10.30
2018-12-04T01:51:03.745Z,10.37
2018-12-04T01:53:32.277Z,10.34
2018-12-04T01:56:00.716Z,10.35
2018-12-04T01:58:29.167Z,10.32
2018-12-04T02:00:57.625Z,10.28
2018-12-04T02:03:26.132Z,10.30
2018-12-04T02:05:54.582Z,10.26
2018-12-04T02:08:23.347Z,10.21
2018-12-04T02:10:51.835Z,10.14
2018-12-04T02:13:21.219Z,10.15
2018-12-04T02:15:49.672Z,10.15
2018-12-04T02:18:18.889Z,10.03
2018-12-04T02:20:47.906Z,10.10
2018-12-04T02:23:16.390Z,10.06
2018-12-04T02:25:45.787Z,9.99
2018-12-04T02:28:14.359Z,9.92
2018-12-04T02:30:42.859Z,9.93
2018-12-04T02:33:13.105Z,9.85
2018-12-04T02:35:41.563Z,9.83
2018-12-04T02:38:10.009Z,9.88
2018-12-04T02:40:39.245Z,9.88
2018-12-04T02:43:07.699Z,9.88
2018-12-04T02:45:37.010Z,9.94
2018-12-04T02:48:05.447Z,9.91
2018-12-04T02:50:33.938Z,9.94
2018-12-04T02:53:02.629Z,9.90
2018-12-04T02:55:31.952Z,9.89
2018-12-04T02:58:01.406Z,9.94
2018-12-04T03:00:30.123Z,9.94
2018-12-04T03:02:58.559Z,9.90
2018-12-04T03:05:27.223Z,9.92
2018-12-04T03:07:56.006Z,9.94
2018-12-04T03:10:24.776Z,9.94
2018-12-04T03:12:54.294Z,9.94
2018-12-04T03:15:24.045Z,10.00
2018-12-04T03:17:52.515Z,9.95
2018-12-04T03:20:21.567Z,9.99
2018-12-04T03:22:50.045Z,9.95
2018-12-04T03:25:18.802Z,9.96
2018-12-04T03:27:47.268Z,9.88
2018-12-04T03:30:15.892Z,9.82
2018-12-04T03:32:44.740Z,9.77
2018-12-04T03:35:13.711Z,9.72
2018-12-04T03:37:42.533Z,9.68
2018-12-04T03:40:11.100Z,9.61
2018-12-04T03:42:39.591Z,9.50
2018-12-04T03:45:08.267Z,9.42
2018-12-04T03:47:36.818Z,9.35
2018-12-04T03:50:05.683Z,9.16
2018-12-04T03:52:34.599Z,9.17
2018-12-04T03:55:03.147Z,8.98
2018-12-04T03:57:31.957Z,8.87
2018-12-04T04:00:00.697Z,8.89
2018-12-04T04:02:30.092Z,8.77
2018-12-04T04:04:59.121Z,8.73
2018-12-04T04:07:27.598Z,8.68
2018-12-04T04:09:56.057Z,8.69
2018-12-04T04:12:24.838Z,8.67
2018-12-04T04:14:54.295Z,8.64
2018-12-04T04:17:23.648Z,8.63
2018-12-04T04:19:53.198Z,8.61
2018-12-04T04:22:22.697Z,8.52
2018-12-04T04:24:51.157Z,8.39
2018-12-04T04:27:19.597Z,8.40
2018-12-04T04:29:48.374Z,8.42
2018-12-04T04:32:17.431Z,8.41
2018-12-04T04:34:45.854Z,8.26
2018-12-04T04:37:14.303Z,8.28
2018-12-04T04:39:42.764Z,8.27
2018-12-04T04:42:11.606Z,8.24
2018-12-04T04:44:41.106Z,8.19
2018-12-04T04:47:09.806Z,8.20
2018-12-04T04:49:38.301Z,8.10
2018-12-04T04:52:06.992Z,8.11
2018-12-04T04:54:35.449Z,7.98
2018-12-04T04:57:04.011Z,8.01
2018-12-04T04:59:32.827Z,7.99
2018-12-04T05:02:02.393Z,7.97
2018-12-04T05:04:31.550Z,7.99
2018-12-04T05:07:00.609Z,7.99
2018-12-04T05:09:29.550Z,7.99
2018-12-04T05:11:58.720Z,8.01
2018-12-04T05:14:27.169Z,7.99
2018-12-04T05:16:55.864Z,8.06
2018-12-04T05:19:24.320Z,8.07
2018-12-04T05:21:53.278Z,8.10
2018-12-04T05:24:22.178Z,8.06
2018-12-04T05:26:51.150Z,8.00
2018-12-04T05:29:20.038Z,8.05
2018-12-04T05:31:48.488Z,7.98
2018-12-04T05:34:17.566Z,7.92
2018-12-04T05:36:46.001Z,7.93
2018-12-04T05:39:15.038Z,7.89
2018-12-04T05:41:44.524Z,7.86
2018-12-04T05:44:13.923Z,7.81
2018-12-04T05:46:42.365Z,7.79
2018-12-04T05:49:12.463Z,7.70
2018-12-04T05:51:41.143Z,7.67
2018-12-04T05:54:14.749Z,7.67
2018-12-04T05:56:43.763Z,7.62
2018-12-04T05:59:12.689Z,7.47
2018-12-04T06:01:41.109Z,7.45
2018-12-04T06:04:09.577Z,7.44
2018-12-04T06:06:38.048Z,7.37
2018-12-04T06:09:07.658Z,7.44
2018-12-04T06:11:36.598Z,7.32
2018-12-04T06:14:05.187Z,7.30
2018-12-04T06:16:33.786Z,7.23
2018-12-04T06:19:02.606Z,7.28
2018-12-04T06:21:31.062Z,7.26
2018-12-04T06:24:00.415Z,7.22
2018-12-04T06:26:29.299Z,7.29
2018-12-04T06:28:57.743Z,7.25
2018-12-04T06:31:26.218Z,7.28
2018-12-04T06:33:54.685Z,7.23
2018-12-04T06:36:25.625Z,7.15
2018-12-04T06:38:54.797Z,7.09
2018-12-04T06:41:25.355Z,7.06
2018-12-04T06:43:54.027Z,7.03
2018-12-04T06:46:22.485Z,6.97
2018-12-04T06:48:50.919Z,6.95
2018-12-04T06:51:20.700Z,6.89
2018-12-04T06:53:50.175Z,6.99
2018-12-04T06:56:18.877Z,7.02
2018-12-04T06:58:54.013Z,7.01
2018-12-04T07:01:24.026Z,6.96
2018-12-04T07:03:54.608Z,6.95
2018-12-04T07:06:23.428Z,6.87
2018-12-04T07:08:54.170Z,6.97
2018-12-04T07:11:30.538Z,6.98
2018-12-04T07:14:00.095Z,6.92
2018-12-04T07:16:31.888Z,6.88
2018-12-04T07:19:02.079Z,6.96
2018-12-04T07:21:36.846Z,6.90
2018-12-04T07:24:05.437Z,6.87
2018-12-04T07:26:35.948Z,6.97
2018-12-04T07:29:07.010Z,6.86
2018-12-04T07:31:36.983Z,6.91
2018-12-04T07:34:06.109Z,6.86
2018-12-04T07:36:34.541Z,6.94
2018-12-04T07:39:04.444Z,6.86
2018-12-04T07:41:33.112Z,6.86
2018-12-04T07:44:01.594Z,6.96
2018-12-04T07:46:30.337Z,6.89
2018-12-04T07:48:59.241Z,6.93
2018-12-04T07:51:30.421Z,6.95
2018-12-04T07:54:03.002Z,6.97
2018-12-04T07:56:32.511Z,6.94
2018-12-04T07:59:01.544Z,6.96
2018-12-04T08:01:30.876Z,6.89
2018-12-04T08:04:02.769Z,6.87
2018-12-04T08:06:31.913Z,6.94
2018-12-04T08:09:00.689Z,6.98
2018-12-04T08:11:29.142Z,6.97
2018-12-04T08:14:07.899Z,6.98
2018-12-04T08:16:56.007Z,6.92
2018-12-04T08:19:36.424Z,6.82
2018-12-04T08:22:17.127Z,6.95
2018-12-04T08:24:58.435Z,7.00
2018-12-04T08:27:41.660Z,7.13
2018-12-04T08:30:22.753Z,7.18
2018-12-04T08:33:06.513Z,7.22
2018-12-04T08:35:45.620Z,7.22
2018-12-04T08:38:22.154Z,7.17
2018-12-04T08:41:00.381Z,7.26
2018-12-04T08:43:38.582Z,7.32
2018-12-04T08:46:15.701Z,7.23
2018-12-04T08:48:50.495Z,7.13
2018-12-04T08:51:27.685Z,7.16
2018-12-04T08:54:03.755Z,7.24
2018-12-04T08:56:37.875Z,7.22
2018-12-04T08:59:08.969Z,7.34
2018-12-04T09:01:43.169Z,7.38
2018-12-04T09:04:11.902Z,7.41
2018-12-04T09:06:51.080Z,7.48
2018-12-04T09:09:27.063Z,7.53
2018-12-04T09:11:59.313Z,7.53
2018-12-04T09:14:38.084Z,7.45
2018-12-04T09:17:05.675Z,7.45
2018-12-04T09:22:20.924Z,7.35
2018-12-04T09:24:59.595Z,7.39
2018-12-04T09:27:31.609Z,7.49
2018-12-04T09:30:08.889Z,7.72
2018-12-04T09:32:40.845Z,8.03
2018-12-04T09:35:09.621Z,8.37
2018-12-04T09:37:38.056Z,8.16
2018-12-04T09:40:08.153Z,8.33
2018-12-04T09:42:37.894Z,7.94
2018-12-04T09:45:09.799Z,8.07
2018-12-04T09:47:45.944Z,8.17
2018-12-04T09:50:25.930Z,8.18
2018-12-04T09:52:59.268Z,8.26
2018-12-04T09:55:36.289Z,8.22
2018-12-04T09:58:08.146Z,8.24
2018-12-04T10:00:42.401Z,8.25
2018-12-04T10:03:10.956Z,8.14
2018-12-04T10:05:39.872Z,8.29
2018-12-04T10:08:11.377Z,8.22
2018-12-04T10:10:42.592Z,8.09
2018-12-04T10:13:17.524Z,8.10
2018-12-04T10:15:58.273Z,8.14
2018-12-04T10:18:33.000Z,8.14
2018-12-04T10:21:04.312Z,8.18
2018-12-04T10:23:46.813Z,8.31
2018-12-04T10:26:22.982Z,8.29
2018-12-04T10:28:57.512Z,8.35
2018-12-04T10:31:38.402Z,8.44
2018-12-04T10:34:10.108Z,8.45
2018-12-04T10:36:38.579Z,8.47
2018-12-04T10:39:08.363Z,8.43
2018-12-04T10:41:46.465Z,8.56
2018-12-04T10:44:25.210Z,8.66
2018-12-04T10:46:55.447Z,8.77
2018-12-04T10:49:28.308Z,9.03
2018-12-04T10:52:11.657Z,9.20
2018-12-04T10:54:43.641Z,9.39
2018-12-04T10:57:17.563Z,9.34
2018-12-04T10:59:46.607Z,9.18
2018-12-04T11:02:20.812Z,9.29
2018-12-04T11:04:49.341Z,8.93
2018-12-04T11:07:18.540Z,8.91
2018-12-04T11:09:48.102Z,9.02
2018-12-04T11:12:24.503Z,8.88
2018-12-04T11:14:55.795Z,8.77
2018-12-04T11:20:05.883Z,8.74
2018-12-04T11:22:37.391Z,8.73
2018-12-04T11:25:16.936Z,8.88
2018-12-04T11:27:53.080Z,8.84
2018-12-04T11:30:21.709Z,9.12
2018-12-04T11:32:55.228Z,9.56
2018-12-04T11:35:26.145Z,10.12
2018-12-04T11:37:56.599Z,10.33
2018-12-04T11:40:25.758Z,10.66
2018-12-04T11:42:55.184Z,10.59
2018-12-04T11:45:24.751Z,10.85
2018-12-04T11:47:53.941Z,11.46
2018-12-04T11:50:23.090Z,11.63
2018-12-04T11:52:51.850Z,11.82
2018-12-04T11:55:20.747Z,11.94
2018-12-04T11:57:49.200Z,11.69
2018-12-04T12:00:37.724Z,11.61
2018-12-04T12:03:06.425Z,11.90
2018-12-04T12:05:34.895Z,11.87
2018-12-04T12:08:03.658Z,11.89
2018-12-04T12:10:32.531Z,12.02
2018-12-04T12:13:01.750Z,11.93
2018-12-04T12:15:30.444Z,11.72
2018-12-04T12:17:58.891Z,11.67
2018-12-04T12:20:28.196Z,12.15
2018-12-04T12:23:00.019Z,12.41
2018-12-04T12:25:35.216Z,12.15
2018-12-04T12:28:06.372Z,12.36
2018-12-04T12:30:36.275Z,12.77
2018-12-04T12:33:06.895Z,12.69
2018-12-04T12:35:36.380Z,12.73
2018-12-04T12:38:05.245Z,12.72
2018-12-04T12:40:34.442Z,12.78
2018-12-04T12:43:05.150Z,13.00
2018-12-04T12:45:43.008Z,13.18
2018-12-04T12:48:16.148Z,13.10
2018-12-04T12:50:45.998Z,13.02
2018-12-04T12:53:17.270Z,12.77
2018-12-04T12:55:49.471Z,12.80
2018-12-04T12:58:32.313Z,12.95
2018-12-04T13:01:05.508Z,12.87
2018-12-04T13:03:35.323Z,12.84
2018-12-04T13:06:09.844Z,12.75
2018-12-04T13:08:41.521Z,12.95
2018-12-04T13:11:12.312Z,13.15
2018-12-04T13:13:44.523Z,13.94
2018-12-04T13:16:20.001Z,13.45
2018-12-04T13:18:49.236Z,13.33
2018-12-04T13:21:17.701Z,13.94
2018-12-04T13:23:46.784Z,14.21
2018-12-04T13:26:15.581Z,13.65
2018-12-04T13:28:44.617Z,12.37
2018-12-04T13:31:16.202Z,12.90
2018-12-04T13:33:46.461Z,12.94
2018-12-04T13:36:19.877Z,12.13
2018-12-04T13:38:54.905Z,12.20
2018-12-04T13:41:28.237Z,12.36
2018-12-04T13:44:03.510Z,12.45
2018-12-04T13:46:39.043Z,11.94
2018-12-04T13:49:13.493Z,11.73
2018-12-04T13:51:45.794Z,10.94
2018-12-04T13:54:20.787Z,10.96
2018-12-04T13:57:03.071Z,11.11
2018-12-04T13:59:37.847Z,11.54
2018-12-04T14:02:10.377Z,11.84
2018-12-04T14:04:46.084Z,11.63
2018-12-04T14:07:19.375Z,11.90
2018-12-04T14:09:54.986Z,11.67
2018-12-04T14:12:27.242Z,11.56
2018-12-04T14:15:02.621Z,11.25
2018-12-04T14:17:39.971Z,10.95
2018-12-04T14:20:11.321Z,10.89
2018-12-04T14:22:42.916Z,11.31
2018-12-04T14:25:14.388Z,12.13
2018-12-04T14:27:49.178Z,12.43
2018-12-04T14:30:36.385Z,11.75
2018-12-04T14:33:11.450Z,11.38
2018-12-04T14:35:46.952Z,10.86
2018-12-04T14:38:24.687Z,10.33
2018-12-04T14:40:55.939Z,10.09
2018-12-04T14:43:27.044Z,10.25
2018-12-04T14:46:12.039Z,10.60
2018-12-04T14:48:55.051Z,10.99
2018-12-04T14:51:27.891Z,10.82
2018-12-04T14:54:00.363Z,10.44
2018-12-04T14:56:33.171Z,9.84
2018-12-04T14:59:04.534Z,9.74
2018-12-04T15:01:37.484Z,9.40
2018-12-04T15:04:13.869Z,9.04
2018-12-04T15:06:47.757Z,8.84
2018-12-04T15:09:19.713Z,8.54
2018-12-04T15:11:48.938Z,8.64
2018-12-04T15:14:24.131Z,8.49
2018-12-04T15:16:55.151Z,8.48
2018-12-04T15:19:24.880Z,8.29
2018-12-04T15:21:54.172Z,8.39
2018-12-04T15:24:23.101Z,8.36
2018-12-04T15:26:52.641Z,8.12
2018-12-04T15:29:22.980Z,8.11
2018-12-04T15:31:52.490Z,8.06
2018-12-04T15:34:25.571Z,7.89
2018-12-04T15:36:58.676Z,7.71
2018-12-04T15:39:27.678Z,7.47
2018-12-04T15:42:05.356Z,7.54
2018-12-04T15:44:41.110Z,7.38
2018-12-04T15:47:09.685Z,7.28
2018-12-04T15:49:38.743Z,7.22
2018-12-04T15:52:07.886Z,7.08
2018-12-04T15:54:36.754Z,7.08
2018-12-04T15:57:06.079Z,6.89
2018-12-04T15:59:35.410Z,6.84
2018-12-04T16:02:04.860Z,6.75
2018-12-04T16:04:45.831Z,6.68
2018-12-04T16:07:16.440Z,6.49
2018-12-04T16:09:53.507Z,6.44
2018-12-04T16:12:22.191Z,6.43
2018-12-04T16:14:50.997Z,6.56
2018-12-04T16:17:23.159Z,6.56
2018-12-04T16:19:55.513Z,6.59
2018-12-04T16:22:26.589Z,6.53
2018-12-04T16:24:59.561Z,6.43
2018-12-04T16:27:31.621Z,6.22
2018-12-04T16:30:03.672Z,6.28
2018-12-04T16:32:36.097Z,6.29
2018-12-04T16:35:09.150Z,6.31
2018-12-04T16:37:42.926Z,6.31
2018-12-04T16:40:16.052Z,6.42
2018-12-04T16:42:50.010Z,6.38
2018-12-04T16:45:19.507Z,6.39
2018-12-04T16:47:48.203Z,6.17
2018-12-04T16:50:20.911Z,6.24
2018-12-04T16:52:53.995Z,6.15
2018-12-04T16:55:30.547Z,6.23
2018-12-04T16:57:59.566Z,6.14
2018-12-04T17:00:37.167Z,6.15
2018-12-04T17:03:10.251Z,6.00
2018-12-04T17:05:47.263Z,5.85
2018-12-04T17:08:26.670Z,5.87
2018-12-04T17:10:55.675Z,5.84
2018-12-04T17:13:30.463Z,5.67
2018-12-04T17:16:06.295Z,5.48
2018-12-04T17:18:42.834Z,5.41
2018-12-04T17:21:16.599Z,5.50
2018-12-04T17:23:49.096Z,5.40
2018-12-04T17:26:26.991Z,5.27
2018-12-04T17:29:02.019Z,5.11
2018-12-04T17:31:33.444Z,4.88
2018-12-04T17:34:04.765Z,4.84
2018-12-04T17:36:37.042Z,4.90
2018-12-04T17:39:07.987Z,5.04
2018-12-04T17:41:41.494Z,4.99
2018-12-04T17:44:14.152Z,4.98
2018-12-04T17:46:45.361Z,4.96
2018-12-04T17:49:19.562Z,4.93
2018-12-04T17:51:53.989Z,5.00
2018-12-04T17:54:28.891Z,5.04
2018-12-04T17:57:02.433Z,5.11
2018-12-04T17:59:38.623Z,5.08
2018-12-04T18:02:12.135Z,5.07
2018-12-04T18:04:44.396Z,4.88
2018-12-04T18:07:14.896Z,4.72
2018-12-04T18:09:46.237Z,4.70
2018-12-04T18:12:17.537Z,4.71
2018-12-04T18:14:55.040Z,4.55
2018-12-04T18:17:29.795Z,4.42
2018-12-04T18:20:02.443Z,4.49
2018-12-04T18:22:34.362Z,4.40
2018-12-04T18:25:09.036Z,4.41
2018-12-04T18:27:39.312Z,4.37
2018-12-04T18:30:13.662Z,4.34
2018-12-04T18:32:46.308Z,4.33
2018-12-04T18:35:19.458Z,4.35
2018-12-04T18:37:50.877Z,4.35
2018-12-04T18:40:22.397Z,4.43
2018-12-04T18:42:54.224Z,4.50
2018-12-04T18:45:27.430Z,4.41
2018-12-04T18:47:59.416Z,4.36
2018-12-04T18:50:31.680Z,4.46
2018-12-04T18:53:14.799Z,4.46
2018-12-04T18:55:44.538Z,4.31
2018-12-04T18:58:16.300Z,4.25
2018-12-04T19:00:46.052Z,4.16
2018-12-04T19:03:15.078Z,3.92
2018-12-04T19:05:43.574Z,3.96
2018-12-04T19:08:14.203Z,4.03
2018-12-04T19:10:51.167Z,4.09
2018-12-04T19:13:20.833Z,4.06
2018-12-04T19:15:55.901Z,4.08
2018-12-04T19:18:29.942Z,3.74
2018-12-04T19:20:59.710Z,3.33
2018-12-04T19:23:33.780Z,3.45
2018-12-04T19:26:07.007Z,3.45
2018-12-04T19:28:40.002Z,3.47
2018-12-04T19:31:12.683Z,3.45
2018-12-04T19:33:47.492Z,3.40
2018-12-04T19:36:19.070Z,3.37
2018-12-04T19:38:53.447Z,3.33
2018-12-04T19:41:26.259Z,3.28
2018-12-04T19:43:56.562Z,3.35
2018-12-04T19:46:26.098Z,3.45
2018-12-04T19:48:58.789Z,3.54
2018-12-04T19:51:31.076Z,3.38
2018-12-04T19:54:07.188Z,3.16
2018-12-04T19:56:46.477Z,3.13
2018-12-04T19:59:18.580Z,3.06
2018-12-04T20:01:59.285Z,3.11
2018-12-04T20:04:30.399Z,3.16
2018-12-04T20:07:07.054Z,3.18
2018-12-04T20:09:38.662Z,3.08
2018-12-04T20:12:15.770Z,3.02
2018-12-04T20:14:52.320Z,3.07
2018-12-04T20:17:25.990Z,2.88
2018-12-04T20:19:59.455Z,2.91
2018-12-04T20:22:31.335Z,2.86
2018-12-04T20:25:04.401Z,2.88
2018-12-04T20:27:36.371Z,2.82
2018-12-04T20:30:10.438Z,2.83
2018-12-04T20:32:45.269Z,2.79
2018-12-04T20:35:18.178Z,2.90
2018-12-04T20:37:51.372Z,2.87
2018-12-04T20:40:31.363Z,2.88
2018-12-04T20:43:03.915Z,2.59
2018-12-04T20:45:40.080Z,2.54
2018-12-04T20:48:14.508Z,2.57
2018-12-04T20:50:46.586Z,2.45
2018-12-04T20:53:21.342Z,2.48
2018-12-04T20:55:54.605Z,2.47
2018-12-04T20:58:25.265Z,2.45
2018-12-04T21:00:59.553Z,2.43
2018-12-04T21:03:37.072Z,2.42
2018-12-04T21:06:08.159Z,2.37
2018-12-04T21:08:41.471Z,2.41
2018-12-04T21:11:15.786Z,2.25
2018-12-04T21:13:45.854Z,2.28
2018-12-04T21:16:19.494Z,2.32
2018-12-04T21:18:54.966Z,2.30
2018-12-04T21:21:25.594Z,2.37
2018-12-04T21:23:58.775Z,2.33
2018-12-04T21:26:36.770Z,2.27
2018-12-04T21:29:11.824Z,2.13
2018-12-04T21:31:54.063Z,2.21
2018-12-04T21:34:32.636Z,2.18
2018-12-04T21:37:13.898Z,2.11
2018-12-04T21:39:55.703Z,2.07
2018-12-04T21:42:32.474Z,2.17
2018-12-04T21:47:50.827Z,2.12
2018-12-04T21:50:29.153Z,2.13
2018-12-04T21:53:02.685Z,2.08
2018-12-04T21:55:38.760Z,2.12
2018-12-04T21:58:13.586Z,2.19
2018-12-04T22:00:49.295Z,2.24
2018-12-04T22:03:23.088Z,2.13
2018-12-04T22:05:53.421Z,2.01
2018-12-04T22:08:25.739Z,2.00
2018-12-04T22:10:59.450Z,1.95
2018-12-04T22:13:30.505Z,1.98
2018-12-04T22:16:02.200Z,2.01
2018-12-04T22:18:36.138Z,1.98
2018-12-04T22:21:08.957Z,1.97
2018-12-04T22:23:42.532Z,1.93
2018-12-04T22:26:11.069Z,1.92
2018-12-04T22:28:40.111Z,1.94
2018-12-04T22:31:09.987Z,1.71
2018-12-04T22:33:44.556Z,1.75
2018-12-04T22:36:15.658Z,1.84
2018-12-04T22:38:57.493Z,1.84
2018-12-04T22:41:31.745Z,1.85
2018-12-04T22:44:13.689Z,1.80
2018-12-04T22:46:52.687Z,1.79
2018-12-04T22:49:21.855Z,1.81
2018-12-04T22:51:51.934Z,1.85
2018-12-04T22:54:21.285Z,1.76
2018-12-04T22:56:49.713Z,1.66
2018-12-04T22:59:18.546Z,1.81
2018-12-04T23:01:47.110Z,1.82
2018-12-04T23:04:15.819Z,1.83
2018-12-04T23:06:45.738Z,1.73
2018-12-04T23:09:15.762Z,1.61
2018-12-04T23:11:46.288Z,1.56
2018-12-04T23:14:14.937Z,1.56
2018-12-04T23:16:44.387Z,1.62
2018-12-04T23:19:12.828Z,1.63
2018-12-04T23:21:41.506Z,1.73
2018-12-04T23:24:10.108Z,1.74
2018-12-04T23:26:39.014Z,1.91
2018-12-04T23:29:07.468Z,1.99
2018-12-04T23:31:37.123Z,1.74
2018-12-04T23:34:06.294Z,1.63
2018-12-04T23:36:34.746Z,1.75
2018-12-04T23:39:04.640Z,1.81
2018-12-04T23:41:33.111Z,1.74
2018-12-04T23:44:03.702Z,1.59
2018-12-04T23:46:32.217Z,1.76
2018-12-04T23:49:01.039Z,1.82
2018-12-04T23:51:29.526Z,1.37
2018-12-04T23:53:58.291Z,1.38
2018-12-04T23:56:26.772Z,1.31
2018-12-04T23:58:55.784Z,1.43
